Weather reports worldwide

Advertisment
Vipiteno, Italy (16014): temperature & dewpoint: 12.10.2018 03:00:00 - 18.10.2018 03:00:00 (CEST)Vipiteno, Italy (16014): wind speed: 12.10.2018 03:00:00 - 18.10.2018 03:00:00 (CEST)Vipiteno, Italy (16014): wind direction: 12.10.2018 03:00:00 - 18.10.2018 03:00:00 (CEST)Vipiteno, Italy (16014): precipitation: 12.10.2018 03:00:00 - 18.10.2018 03:00:00 (CEST)
Date & Time tt [°C] td [°C] ff [km/h] ff [kn] dd rr [mm]
18.10.2018 03:00:00 3,0 1,5 0 0 N -
18.10.2018 02:00:00 2,5 0,8 0 0 N 0,0
18.10.2018 01:00:00 3,9 2,1 0 0 N -
18.10.2018 00:00:00 4,4 2,1 0 0 N -
17.10.2018 23:00:00 5,8 3,4 0 0 N -
17.10.2018 22:00:00 6,1 2,5 0 0 N -
17.10.2018 21:00:00 8,6 4,7 2 1 WSW -
17.10.2018 20:00:00 9,8 5,3 4 2 W 0,0
17.10.2018 19:00:00 10,9 5,4 0 0 N -
17.10.2018 18:00:00 12,8 6,1 5 3 S -
17.10.2018 17:00:00 14,4 6,2 9 5 ESE -
17.10.2018 16:00:00 15,8 6,4 8 4 S -
17.10.2018 15:00:00 15,5 5,9 8 4 S -
17.10.2018 14:00:00 15,0 6,5 4 2 SE 0,0
17.10.2018 13:00:00 13,7 6,0 5 3 ENE -
17.10.2018 12:00:00 11,4 9,1 2 1 ENE -
17.10.2018 11:00:00 8,1 6,5 4 2 NNE -
17.10.2018 10:00:00 5,3 3,8 2 1 NE -
17.10.2018 09:00:00 2,3 0,8 0 0 N -
17.10.2018 08:00:00 1,4 -0,1 0 0 N 0,0
17.10.2018 07:00:00 1,2 -0,3 0 0 N -
17.10.2018 06:00:00 1,6 0,1 0 0 N -
17.10.2018 05:00:00 2,1 0,6 0 0 N -
17.10.2018 04:00:00 2,9 1,4 0 0 N -
17.10.2018 03:00:00 1,7 0,1 0 0 N -
17.10.2018 02:00:00 2,7 0,9 0 0 N 0,0
17.10.2018 01:00:00 3,1 1,0 0 0 N -
17.10.2018 00:00:00 3,7 1,0 0 0 N -
16.10.2018 23:00:00 4,8 1,6 0 0 N -
16.10.2018 22:00:00 6,1 2,3 0 0 N -
16.10.2018 21:00:00 7,2 3,0 4 2 WSW -
16.10.2018 20:00:00 9,1 4,1 2 1 WSW 0,0
16.10.2018 19:00:00 11,1 4,9 5 3 W -
16.10.2018 18:00:00 12,9 5,7 5 3 S -
16.10.2018 17:00:00 14,3 5,8 8 4 SE -
16.10.2018 16:00:00 15,3 5,7 8 4 SE -
16.10.2018 15:00:00 14,0 6,5 4 2 SSE -
16.10.2018 14:00:00 13,9 6,4 5 3 S 0,0
16.10.2018 13:00:00 14,0 7,0 4 2 ENE -
16.10.2018 12:00:00 12,0 7,1 2 1 N -
16.10.2018 11:00:00 10,7 8,4 2 1 NE -
16.10.2018 10:00:00 8,6 7,0 2 1 NNE -
16.10.2018 09:00:00 5,3 3,6 0 0 N -
16.10.2018 08:00:00 5,3 3,3 0 0 N 0,0
16.10.2018 07:00:00 6,3 3,8 0 0 N -
16.10.2018 06:00:00 6,7 3,3 0 0 N -
16.10.2018 05:00:00 8,6 4,4 0 0 N -
16.10.2018 04:00:00 10,0 5,7 4 2 SSW -
16.10.2018 03:00:00 10,6 6,1 5 3 SSE -
16.10.2018 02:00:00 10,9 6,2 8 4 SE 0,0
16.10.2018 01:00:00 11,1 6,4 9 5 ESE -
16.10.2018 00:00:00 11,7 6,4 5 3 SE -
15.10.2018 23:00:00 12,2 6,6 5 3 NE -
15.10.2018 22:00:00 12,1 6,9 5 3 S -
15.10.2018 21:00:00 10,9 6,6 2 1 ESE -
15.10.2018 20:00:00 11,6 6,7 2 1 SSE 0,0
15.10.2018 19:00:00 12,2 6,4 2 1 W -
15.10.2018 18:00:00 13,4 6,9 2 1 SE -
15.10.2018 17:00:00 14,6 6,9 5 3 S -
15.10.2018 16:00:00 14,2 7,0 4 2 WSW -
15.10.2018 15:00:00 13,9 6,2 9 5 E -
15.10.2018 14:00:00 14,4 6,4 8 4 E 0,0
15.10.2018 13:00:00 13,3 6,3 8 4 SSE -
15.10.2018 12:00:00 12,1 8,1 2 1 SSE -
15.10.2018 11:00:00 10,9 8,4 0 0 N -
15.10.2018 10:00:00 9,3 7,6 4 2 N -
15.10.2018 09:00:00 6,7 4,2 0 0 N -
15.10.2018 08:00:00 7,9 5,2 2 1 S 0,0
15.10.2018 07:00:00 8,8 5,5 4 2 S -
15.10.2018 06:00:00 9,5 5,8 4 2 SSW -
15.10.2018 05:00:00 9,7 5,8 5 3 SE -
15.10.2018 04:00:00 8,7 5,9 4 2 SE -
15.10.2018 03:00:00 8,9 6,1 2 1 S -
15.10.2018 02:00:00 8,4 5,1 0 0 N 0,0
15.10.2018 01:00:00 8,8 4,8 2 1 ESE -
15.10.2018 00:00:00 9,2 4,8 2 1 NNW -
14.10.2018 23:00:00 10,1 5,0 2 1 W -
14.10.2018 22:00:00 10,4 4,3 4 2 NW -
14.10.2018 21:00:00 11,5 4,4 4 2 NW -
14.10.2018 20:00:00 12,8 4,9 4 2 WSW 0,0
14.10.2018 19:00:00 13,4 4,5 4 2 WSW -
14.10.2018 18:00:00 14,6 4,8 4 2 SE -
14.10.2018 17:00:00 17,4 3,9 5 3 WSW -
14.10.2018 16:00:00 18,0 6,1 4 2 E -
14.10.2018 15:00:00 17,7 5,9 5 3 SSW -
14.10.2018 14:00:00 16,9 6,0 9 5 E 0,0
14.10.2018 13:00:00 15,5 6,9 8 4 SSE -
14.10.2018 12:00:00 13,1 7,7 4 2 E -
14.10.2018 11:00:00 10,0 8,4 2 1 ENE -
14.10.2018 10:00:00 6,9 5,4 0 0 N -
14.10.2018 09:00:00 3,2 1,7 0 0 N -
14.10.2018 08:00:00 1,8 0,3 0 0 N 0,0
14.10.2018 07:00:00 2,4 0,9 0 0 N -
14.10.2018 06:00:00 2,5 1,0 0 0 N -
14.10.2018 05:00:00 2,9 1,4 0 0 N -
14.10.2018 04:00:00 3,7 2,2 0 0 N -
14.10.2018 03:00:00 4,0 2,5 0 0 N -
14.10.2018 02:00:00 4,5 2,5 0 0 N 0,0
14.10.2018 01:00:00 5,6 3,4 0 0 N -
14.10.2018 00:00:00 5,9 2,7 0 0 N -
13.10.2018 23:00:00 7,6 3,8 0 0 N -
13.10.2018 22:00:00 9,6 5,3 4 2 W -
13.10.2018 21:00:00 10,2 5,5 4 2 W -
13.10.2018 20:00:00 11,7 6,4 2 1 SW 0,0
13.10.2018 19:00:00 14,1 7,1 5 3 WSW -
13.10.2018 18:00:00 15,1 6,6 5 3 S -
13.10.2018 17:00:00 18,1 6,5 5 3 SW -
13.10.2018 16:00:00 19,7 7,4 4 2 ENE -
13.10.2018 15:00:00 17,9 8,7 2 1 W -
13.10.2018 14:00:00 17,4 8,5 2 1 SSE -
13.10.2018 13:00:00 16,4 9,0 2 1 E -
13.10.2018 12:00:00 13,7 9,7 2 1 ENE -
13.10.2018 11:00:00 11,8 10,2 2 1 NE -
13.10.2018 10:00:00 8,3 6,7 2 1 NE -
13.10.2018 09:00:00 5,3 3,8 0 0 N -
13.10.2018 08:00:00 3,6 2,1 0 0 N 0,0
13.10.2018 07:00:00 3,7 2,2 0 0 N -
13.10.2018 06:00:00 3,5 2,0 0 0 N -
13.10.2018 05:00:00 4,7 3,2 0 0 N -
13.10.2018 04:00:00 4,4 2,9 0 0 N -
13.10.2018 03:00:00 4,9 3,4 0 0 N -
13.10.2018 02:00:00 5,7 3,8 0 0 N 0,0
13.10.2018 01:00:00 6,1 4,1 0 0 N -
13.10.2018 00:00:00 6,4 3,9 0 0 N -
12.10.2018 23:00:00 7,9 5,2 2 1 S -
12.10.2018 22:00:00 8,2 4,0 2 1 W -
12.10.2018 21:00:00 9,5 4,6 0 0 N -
12.10.2018 20:00:00 11,8 6,7 5 3 W 0,0
12.10.2018 19:00:00 13,8 7,3 5 3 SSW -
12.10.2018 18:00:00 15,7 7,1 5 3 S -
12.10.2018 17:00:00 16,5 6,8 8 4 S -
12.10.2018 16:00:00 19,4 8,0 4 2 SSW -
12.10.2018 15:00:00 20,2 8,1 4 2 S -
12.10.2018 14:00:00 18,0 8,5 2 1 W 0,0
12.10.2018 13:00:00 17,0 9,1 4 2 SW -
12.10.2018 12:00:00 14,4 8,9 5 3 ENE -
12.10.2018 11:00:00 13,2 10,3 2 1 NW -
12.10.2018 10:00:00 10,9 9,3 2 1 N -
12.10.2018 09:00:00 7,9 6,3 4 2 N -
12.10.2018 08:00:00 6,8 4,8 0 0 N 0,0
12.10.2018 07:00:00 8,9 7,2 2 1 WSW -
12.10.2018 06:00:00 8,7 6,6 0 0 N -
12.10.2018 05:00:00 8,6 6,0 0 0 N -
12.10.2018 04:00:00 10,0 7,4 0 0 N -
12.10.2018 03:00:00 10,5 7,7 0 0 N -

tt = temperature
td = dewpoint
ff = wind speed
dd = wind direction
rr = precipitation

Next stations